createdAt,value
2018-07-06T00:01:26.314Z,19.12
2018-07-06T00:04:06.226Z,19.07
2018-07-06T00:06:45.931Z,19.03
2018-07-06T00:09:25.687Z,18.97
2018-07-06T00:12:05.570Z,18.93
2018-07-06T00:14:45.451Z,18.88
2018-07-06T00:17:25.130Z,18.91
2018-07-06T00:20:05.098Z,18.90
2018-07-06T00:22:44.838Z,18.93
2018-07-06T00:25:24.631Z,18.90
2018-07-06T00:28:04.431Z,18.87
2018-07-06T00:30:44.271Z,18.86
2018-07-06T00:33:24.062Z,18.86
2018-07-06T00:36:03.882Z,18.81
2018-07-06T00:38:43.631Z,18.83
2018-07-06T00:41:24.098Z,18.82
2018-07-06T00:44:03.726Z,18.82
2018-07-06T00:46:43.557Z,18.82
2018-07-06T00:49:23.306Z,18.83
2018-07-06T00:52:03.275Z,18.87
2018-07-06T00:54:43.173Z,18.85
2018-07-06T00:57:22.968Z,18.76
2018-07-06T01:00:02.672Z,18.83
2018-07-06T01:02:42.383Z,18.84
2018-07-06T01:05:22.240Z,18.84
2018-07-06T01:08:01.952Z,18.75
2018-07-06T01:10:41.751Z,18.71
2018-07-06T01:13:21.462Z,18.71
2018-07-06T01:16:01.214Z,18.73
2018-07-06T01:18:41.270Z,18.77
2018-07-06T01:21:21.041Z,18.82
2018-07-06T01:24:00.629Z,18.82
2018-07-06T01:26:40.294Z,18.82
2018-07-06T01:29:20.108Z,18.82
2018-07-06T01:32:00.027Z,18.81
2018-07-06T01:34:39.695Z,18.80
2018-07-06T01:37:19.470Z,18.81
2018-07-06T01:39:59.271Z,18.84
2018-07-06T01:42:39.046Z,18.85
2018-07-06T01:45:18.993Z,18.83
2018-07-06T01:47:58.826Z,18.87
2018-07-06T01:50:38.594Z,18.86
2018-07-06T01:53:18.418Z,18.83
2018-07-06T02:02:54.824Z,18.77
2018-07-06T02:05:34.663Z,18.71
2018-07-06T02:08:14.199Z,18.73
2018-07-06T02:10:53.899Z,18.74
2018-07-06T02:13:33.658Z,18.74
2018-07-06T02:16:13.175Z,18.72
2018-07-06T02:18:52.999Z,18.74
2018-07-06T02:21:32.865Z,18.78
2018-07-06T02:24:12.595Z,18.80
2018-07-06T02:26:52.428Z,18.76
2018-07-06T02:29:32.197Z,18.76
2018-07-06T02:32:11.862Z,18.81
2018-07-06T02:34:51.665Z,18.81
2018-07-06T02:37:31.463Z,18.81
2018-07-06T02:40:11.256Z,18.81
2018-07-06T02:42:50.938Z,18.82
2018-07-06T02:45:30.748Z,18.86
2018-07-06T02:48:10.427Z,18.87
2018-07-06T02:50:50.173Z,18.86
2018-07-06T02:53:29.967Z,18.83
2018-07-06T02:56:09.677Z,18.84
2018-07-06T02:58:49.512Z,18.91
2018-07-06T03:01:29.435Z,18.84
2018-07-06T03:04:09.140Z,18.81
2018-07-06T03:06:48.959Z,18.76
2018-07-06T03:09:28.891Z,18.70
2018-07-06T03:12:08.683Z,18.72
2018-07-06T03:14:48.485Z,18.75
2018-07-06T03:17:28.365Z,18.77
2018-07-06T03:20:08.204Z,18.76
2018-07-06T03:22:47.828Z,18.75
2018-07-06T03:25:27.636Z,18.81
2018-07-06T03:28:07.533Z,18.76
2018-07-06T03:30:47.270Z,18.76
2018-07-06T03:33:27.247Z,18.72
2018-07-06T03:36:06.913Z,18.72
2018-07-06T03:38:50.638Z,18.71
2018-07-06T03:41:30.434Z,18.71
2018-07-06T03:44:10.083Z,18.67
2018-07-06T03:46:49.815Z,18.58
2018-07-06T03:49:29.676Z,18.49
2018-07-06T03:52:09.378Z,18.48
2018-07-06T03:54:49.269Z,18.44
2018-07-06T03:57:28.863Z,18.43
2018-07-06T04:00:08.551Z,18.41
2018-07-06T04:02:48.310Z,18.38
2018-07-06T04:05:28.257Z,18.31
2018-07-06T04:08:08.067Z,18.23
2018-07-06T04:10:47.795Z,18.17
2018-07-06T04:13:27.498Z,18.10
2018-07-06T04:16:07.577Z,18.06
2018-07-06T04:18:47.410Z,18.04
2018-07-06T04:21:27.147Z,18.04
2018-07-06T04:24:06.823Z,17.96
2018-07-06T04:26:46.782Z,17.94
2018-07-06T04:29:26.289Z,17.90
2018-07-06T04:32:06.198Z,17.87
2018-07-06T04:34:45.990Z,17.86
2018-07-06T04:37:25.778Z,17.90
2018-07-06T04:40:05.635Z,17.93
2018-07-06T04:42:45.328Z,17.91
2018-07-06T04:45:25.120Z,17.90
2018-07-06T04:48:04.962Z,17.93
2018-07-06T04:50:44.744Z,17.92
2018-07-06T04:53:24.540Z,17.88
2018-07-06T04:56:04.371Z,17.92
2018-07-06T04:58:44.222Z,18.03
2018-07-06T05:01:23.821Z,18.02
2018-07-06T05:04:03.494Z,18.02
2018-07-06T05:06:43.342Z,17.97
2018-07-06T05:09:23.196Z,17.96
2018-07-06T05:12:02.828Z,17.93
2018-07-06T05:14:42.490Z,17.97
2018-07-06T05:17:22.304Z,18.01
2018-07-06T05:20:04.793Z,18.06
2018-07-06T05:22:44.650Z,18.00
2018-07-06T05:25:24.446Z,17.98
2018-07-06T05:28:04.260Z,17.98
2018-07-06T05:30:43.826Z,17.97
2018-07-06T05:33:23.683Z,18.00
2018-07-06T05:36:03.638Z,18.03
2018-07-06T05:38:43.343Z,18.05
2018-07-06T05:41:23.064Z,18.10
2018-07-06T05:44:02.843Z,18.11
2018-07-06T05:46:42.647Z,18.18
2018-07-06T05:49:22.396Z,18.22
2018-07-06T05:52:02.182Z,18.20
2018-07-06T05:54:42.120Z,18.19
2018-07-06T05:57:22.189Z,18.18
2018-07-06T06:00:01.944Z,18.16
2018-07-06T06:02:41.832Z,18.19
2018-07-06T06:05:21.427Z,18.21
2018-07-06T06:07:48.694Z,18.32
2018-07-06T06:10:17.475Z,18.37
2018-07-06T06:12:45.991Z,18.43
2018-07-06T06:15:14.489Z,18.38
2018-07-06T06:17:43.019Z,18.40
2018-07-06T06:20:15.178Z,18.37
2018-07-06T06:22:43.696Z,18.34
2018-07-06T06:25:12.602Z,18.29
2018-07-06T06:27:41.102Z,18.33
2018-07-06T06:30:09.921Z,18.42
2018-07-06T06:32:39.163Z,18.46
2018-07-06T06:35:07.699Z,18.50
2018-07-06T06:37:36.219Z,18.55
2018-07-06T06:40:04.776Z,18.67
2018-07-06T06:42:33.703Z,18.80
2018-07-06T06:45:02.234Z,18.76
2018-07-06T06:47:30.864Z,18.83
2018-07-06T06:49:59.458Z,18.82
2018-07-06T06:52:27.982Z,18.89
2018-07-06T06:54:56.661Z,19.06
2018-07-06T06:57:25.398Z,19.38
2018-07-06T06:59:53.986Z,19.44
2018-07-06T07:02:22.579Z,19.51
2018-07-06T07:04:51.223Z,19.56
2018-07-06T07:07:19.843Z,19.72
2018-07-06T07:09:48.583Z,19.86
2018-07-06T07:12:17.118Z,19.86
2018-07-06T07:14:45.703Z,19.63
2018-07-06T07:17:14.609Z,19.65
2018-07-06T07:19:43.154Z,19.62
2018-07-06T07:22:11.770Z,19.72
2018-07-06T07:24:40.294Z,19.85
2018-07-06T07:27:08.807Z,19.85
2018-07-06T07:29:37.402Z,19.83
2018-07-06T07:32:05.946Z,19.94
2018-07-06T07:34:34.395Z,19.97
2018-07-06T07:37:02.894Z,19.93
2018-07-06T07:39:31.582Z,20.15
2018-07-06T07:42:00.175Z,20.33
2018-07-06T07:44:28.662Z,20.37
2018-07-06T07:46:57.179Z,20.52
2018-07-06T07:49:25.703Z,20.48
2018-07-06T07:52:08.987Z,20.46
2018-07-06T07:54:48.406Z,20.56
2018-07-06T07:57:16.990Z,20.75
2018-07-06T07:59:45.602Z,20.93
2018-07-06T08:02:14.047Z,21.18
2018-07-06T08:04:42.747Z,21.27
2018-07-06T08:07:11.514Z,21.45
2018-07-06T08:09:40.312Z,21.87
2018-07-06T08:12:08.774Z,22.13
2018-07-06T08:14:37.823Z,22.24
2018-07-06T08:17:06.436Z,22.33
2018-07-06T08:19:35.305Z,22.58
2018-07-06T08:22:03.841Z,22.50
2018-07-06T08:24:32.327Z,22.66
2018-07-06T08:27:00.886Z,23.02
2018-07-06T08:29:29.390Z,23.20
2018-07-06T08:31:57.890Z,23.21
2018-07-06T08:34:37.562Z,23.33
2018-07-06T08:37:29.951Z,23.51
2018-07-06T08:39:59.164Z,23.33
2018-07-06T08:42:29.120Z,23.54
2018-07-06T08:44:58.656Z,23.58
2018-07-06T08:47:27.263Z,23.70
2018-07-06T08:49:56.797Z,23.87
2018-07-06T08:52:25.310Z,24.01
2018-07-06T08:54:54.126Z,24.18
2018-07-06T08:57:23.682Z,24.55
2018-07-06T08:59:52.903Z,24.84
2018-07-06T09:02:21.858Z,24.76
2018-07-06T09:04:51.131Z,25.11
2018-07-06T09:07:19.613Z,24.97
2018-07-06T09:09:48.198Z,24.99
2018-07-06T09:12:16.687Z,24.68
2018-07-06T09:14:45.119Z,23.96
2018-07-06T09:17:14.997Z,23.70
2018-07-06T09:19:44.035Z,23.64
2018-07-06T09:22:13.087Z,23.64
2018-07-06T09:24:42.054Z,24.05
2018-07-06T09:27:10.783Z,24.55
2018-07-06T09:29:39.329Z,24.84
2018-07-06T09:32:08.450Z,25.11
2018-07-06T09:34:37.210Z,24.91
2018-07-06T09:37:05.837Z,25.17
2018-07-06T09:39:34.506Z,25.14
2018-07-06T09:42:03.509Z,25.04
2018-07-06T09:44:32.068Z,24.87
2018-07-06T09:47:00.678Z,24.34
2018-07-06T09:49:29.175Z,24.12
2018-07-06T09:51:58.319Z,23.82
2018-07-06T09:54:26.895Z,23.91
2018-07-06T09:56:55.439Z,23.52
2018-07-06T09:59:24.079Z,23.33
2018-07-06T10:01:52.991Z,23.11
2018-07-06T10:04:21.574Z,22.80
2018-07-06T10:06:50.166Z,22.82
2018-07-06T10:09:18.634Z,22.58
2018-07-06T10:11:47.186Z,22.39
2018-07-06T10:14:15.659Z,22.30
2018-07-06T10:16:44.295Z,22.17
2018-07-06T10:19:12.838Z,22.16
2018-07-06T10:21:41.374Z,22.35
2018-07-06T10:24:09.898Z,22.68
2018-07-06T10:26:38.497Z,22.63
2018-07-06T10:29:20.128Z,22.69
2018-07-06T10:32:26.426Z,22.98
2018-07-06T10:34:55.174Z,23.18
2018-07-06T10:37:24.035Z,23.54
2018-07-06T10:39:56.793Z,23.75
2018-07-06T10:42:25.211Z,23.95
2018-07-06T10:44:53.739Z,23.89
2018-07-06T10:47:22.259Z,24.26
2018-07-06T10:49:50.696Z,23.87
2018-07-06T10:52:19.345Z,24.21
2018-07-06T10:54:48.487Z,24.42
2018-07-06T10:57:17.116Z,24.39
2018-07-06T10:59:45.590Z,24.70
2018-07-06T11:02:14.022Z,24.75
2018-07-06T11:04:42.611Z,24.96
2018-07-06T11:07:11.357Z,25.34
2018-07-06T11:09:39.978Z,25.64
2018-07-06T11:12:08.456Z,26.01
2018-07-06T11:14:36.966Z,26.66
2018-07-06T11:17:05.589Z,26.74
2018-07-06T11:19:34.262Z,27.03
2018-07-06T11:22:02.812Z,27.20
2018-07-06T11:24:31.524Z,27.55
2018-07-06T11:27:00.191Z,27.39
2018-07-06T11:29:28.712Z,27.55
2018-07-06T11:31:57.226Z,27.18
2018-07-06T11:34:25.867Z,26.94
2018-07-06T11:36:54.345Z,26.91
2018-07-06T11:39:22.807Z,27.03
2018-07-06T11:41:51.482Z,27.21
2018-07-06T11:44:20.011Z,27.43
2018-07-06T11:46:48.430Z,27.04
2018-07-06T11:49:16.942Z,26.96
2018-07-06T11:51:45.599Z,27.01
2018-07-06T11:54:14.236Z,27.71
2018-07-06T11:56:42.683Z,28.37
2018-07-06T11:59:11.205Z,28.44
2018-07-06T12:01:39.635Z,28.42
2018-07-06T12:04:08.288Z,28.57
2018-07-06T12:06:36.724Z,28.68
2018-07-06T12:09:05.955Z,28.18
2018-07-06T12:11:34.582Z,28.25
2018-07-06T12:14:03.327Z,28.11
2018-07-06T12:16:32.063Z,28.13
2018-07-06T12:19:00.568Z,28.25
2018-07-06T12:21:29.128Z,28.05
2018-07-06T12:23:57.635Z,27.67
2018-07-06T12:26:26.110Z,27.84
2018-07-06T12:28:54.589Z,27.98
2018-07-06T12:31:23.138Z,28.29
2018-07-06T12:33:51.564Z,28.19
2018-07-06T12:36:20.090Z,28.25
2018-07-06T12:38:48.830Z,27.93
2018-07-06T12:41:17.456Z,27.87
2018-07-06T12:43:46.115Z,27.35
2018-07-06T12:46:14.978Z,27.26
2018-07-06T12:48:43.579Z,26.88
2018-07-06T12:51:12.136Z,26.84
2018-07-06T12:53:40.726Z,26.94
2018-07-06T12:56:09.251Z,26.79
2018-07-06T12:58:37.778Z,27.10
2018-07-06T13:01:06.491Z,27.01
2018-07-06T13:03:35.026Z,27.36
2018-07-06T13:06:03.640Z,27.65
2018-07-06T13:08:32.289Z,27.86
2018-07-06T13:11:00.855Z,28.05
2018-07-06T13:13:29.287Z,28.29
2018-07-06T13:15:57.904Z,28.72
2018-07-06T13:18:26.673Z,28.87
2018-07-06T13:20:55.142Z,29.08
2018-07-06T13:23:23.591Z,29.27
2018-07-06T13:25:52.195Z,29.11
2018-07-06T13:28:20.901Z,28.82
2018-07-06T13:30:49.454Z,28.18
2018-07-06T13:33:18.051Z,28.51
2018-07-06T13:35:46.576Z,28.71
2018-07-06T13:38:15.147Z,28.94
2018-07-06T13:40:45.010Z,28.71
2018-07-06T13:43:13.841Z,28.79
2018-07-06T13:45:42.398Z,29.40
2018-07-06T13:48:10.985Z,32.16
2018-07-06T13:50:39.499Z,31.89
2018-07-06T13:53:08.176Z,32.15
2018-07-06T13:55:36.743Z,32.10
2018-07-06T13:58:05.341Z,32.13
2018-07-06T14:00:34.040Z,33.84
2018-07-06T14:03:02.578Z,36.92
2018-07-06T14:05:31.102Z,38.86
2018-07-06T14:07:59.678Z,41.83
2018-07-06T14:10:28.158Z,43.12
2018-07-06T14:12:56.620Z,42.43
2018-07-06T14:15:25.134Z,42.04
2018-07-06T14:17:53.776Z,40.75
2018-07-06T14:20:22.273Z,38.49
2018-07-06T14:22:50.874Z,36.14
2018-07-06T14:25:19.505Z,34.20
2018-07-06T14:27:48.181Z,35.30
2018-07-06T14:30:16.696Z,36.34
2018-07-06T14:32:45.311Z,37.89
2018-07-06T14:35:13.944Z,39.03
2018-07-06T14:37:42.716Z,38.80
2018-07-06T14:40:11.290Z,38.66
2018-07-06T14:42:39.927Z,39.82
2018-07-06T14:45:08.592Z,40.47
2018-07-06T14:47:37.130Z,41.49
2018-07-06T14:50:05.719Z,41.65
2018-07-06T14:52:34.279Z,42.16
2018-07-06T14:55:03.094Z,41.70
2018-07-06T14:57:31.623Z,41.01
2018-07-06T15:00:00.660Z,41.49
2018-07-06T15:02:29.195Z,41.69
2018-07-06T15:04:58.096Z,42.02
2018-07-06T15:07:26.656Z,42.12
2018-07-06T15:09:55.224Z,42.45
2018-07-06T15:12:23.811Z,41.74
2018-07-06T15:14:52.491Z,42.19
2018-07-06T15:17:20.931Z,42.77
2018-07-06T15:19:49.454Z,41.82
2018-07-06T15:22:18.014Z,42.34
2018-07-06T15:24:46.670Z,42.96
2018-07-06T15:27:15.424Z,40.13
2018-07-06T15:29:43.970Z,41.28
2018-07-06T15:32:12.542Z,42.56
2018-07-06T15:34:41.231Z,42.63
2018-07-06T15:37:09.852Z,42.05
2018-07-06T15:39:42.158Z,40.49
2018-07-06T15:42:10.811Z,36.11
2018-07-06T15:44:39.589Z,32.28
2018-07-06T15:47:08.117Z,30.64
2018-07-06T15:49:36.760Z,29.26
2018-07-06T15:52:05.191Z,28.47
2018-07-06T15:54:33.711Z,27.82
2018-07-06T15:57:02.255Z,27.31
2018-07-06T15:59:30.806Z,26.99
2018-07-06T16:01:59.708Z,26.63
2018-07-06T16:04:28.213Z,26.47
2018-07-06T16:06:56.688Z,26.39
2018-07-06T16:09:25.322Z,26.24
2018-07-06T16:11:54.787Z,26.21
2018-07-06T16:14:23.295Z,26.00
2018-07-06T16:16:51.746Z,25.81
2018-07-06T16:19:20.598Z,25.87
2018-07-06T16:21:49.174Z,25.84
2018-07-06T16:24:17.715Z,25.82
2018-07-06T16:26:46.179Z,25.61
2018-07-06T16:29:14.667Z,25.46
2018-07-06T16:31:43.184Z,25.26
2018-07-06T16:34:11.723Z,25.18
2018-07-06T16:36:40.220Z,25.25
2018-07-06T16:39:08.826Z,25.25
2018-07-06T16:41:37.282Z,25.19
2018-07-06T16:44:06.049Z,25.27
2018-07-06T16:46:34.531Z,25.41
2018-07-06T16:49:03.018Z,25.45
2018-07-06T16:51:32.249Z,25.69
2018-07-06T16:54:00.828Z,26.32
2018-07-06T16:56:29.671Z,27.36
2018-07-06T16:58:58.360Z,28.81
2018-07-06T17:01:26.920Z,31.22
2018-07-06T17:03:55.783Z,34.22
2018-07-06T17:06:24.235Z,36.30
2018-07-06T17:08:52.760Z,37.71
2018-07-06T17:11:21.364Z,36.83
2018-07-06T17:13:50.284Z,37.66
2018-07-06T17:16:19.171Z,38.24
2018-07-06T17:18:47.639Z,39.21
2018-07-06T17:21:16.226Z,39.96
2018-07-06T17:23:44.744Z,39.51
2018-07-06T17:26:17.599Z,39.72
2018-07-06T17:28:46.111Z,39.92
2018-07-06T17:31:14.792Z,39.85
2018-07-06T17:33:43.400Z,40.36
2018-07-06T17:36:11.959Z,40.34
2018-07-06T17:38:40.548Z,39.72
2018-07-06T17:41:09.132Z,39.48
2018-07-06T17:43:37.759Z,38.59
2018-07-06T17:46:06.275Z,38.75
2018-07-06T17:48:34.820Z,38.47
2018-07-06T17:51:03.549Z,37.11
2018-07-06T17:53:32.419Z,33.70
2018-07-06T17:56:01.021Z,31.27
2018-07-06T17:58:29.503Z,29.77
2018-07-06T18:00:58.579Z,28.47
2018-07-06T18:03:27.125Z,27.58
2018-07-06T18:05:55.623Z,26.99
2018-07-06T18:08:24.069Z,26.42
2018-07-06T18:10:52.665Z,26.17
2018-07-06T18:13:21.277Z,25.91
2018-07-06T18:15:49.831Z,25.67
2018-07-06T18:18:18.509Z,25.44
2018-07-06T18:20:47.138Z,25.12
2018-07-06T18:23:15.912Z,24.87
2018-07-06T18:25:44.459Z,24.74
2018-07-06T18:28:13.329Z,24.57
2018-07-06T18:30:41.784Z,24.38
2018-07-06T18:33:10.321Z,24.21
2018-07-06T18:35:38.844Z,24.10
2018-07-06T18:38:07.459Z,23.89
2018-07-06T18:40:35.943Z,23.79
2018-07-06T18:43:04.496Z,23.75
2018-07-06T18:45:33.236Z,23.75
2018-07-06T18:48:01.792Z,23.73
2018-07-06T18:50:30.317Z,23.66
2018-07-06T18:52:58.963Z,23.61
2018-07-06T18:55:27.548Z,23.47
2018-07-06T18:57:55.995Z,23.33
2018-07-06T19:00:24.596Z,23.18
2018-07-06T19:02:53.098Z,23.07
2018-07-06T19:05:21.570Z,22.95
2018-07-06T19:07:50.046Z,22.83
2018-07-06T19:10:18.575Z,22.66
2018-07-06T19:12:47.363Z,22.50
2018-07-06T19:15:15.911Z,22.42
2018-07-06T19:17:44.357Z,22.39
2018-07-06T19:20:12.879Z,22.20
2018-07-06T19:22:41.422Z,22.11
2018-07-06T19:25:09.983Z,22.03
2018-07-06T19:27:38.976Z,21.94
2018-07-06T19:30:07.538Z,21.86
2018-07-06T19:32:36.167Z,21.84
2018-07-06T19:35:04.718Z,21.82
2018-07-06T19:37:33.263Z,21.80
2018-07-06T19:40:01.687Z,21.76
2018-07-06T19:42:30.235Z,21.66
2018-07-06T19:44:58.718Z,21.55
2018-07-06T19:47:27.196Z,21.42
2018-07-06T19:49:55.678Z,21.28
2018-07-06T19:52:24.158Z,21.19
2018-07-06T19:54:52.894Z,21.12
2018-07-06T19:57:21.382Z,21.04
2018-07-06T19:59:49.963Z,21.01
2018-07-06T20:02:18.506Z,21.01
2018-07-06T20:04:47.107Z,21.01
2018-07-06T20:07:15.766Z,21.04
2018-07-06T20:09:44.267Z,20.97
2018-07-06T20:12:12.939Z,20.90
2018-07-06T20:14:41.687Z,20.89
2018-07-06T20:17:10.318Z,20.91
2018-07-06T20:19:38.807Z,20.85
2018-07-06T20:22:07.335Z,20.75
2018-07-06T20:24:35.866Z,20.65
2018-07-06T20:27:04.523Z,20.56
2018-07-06T20:29:33.302Z,20.48
2018-07-06T20:32:01.844Z,20.42
2018-07-06T20:34:30.762Z,20.35
2018-07-06T20:36:59.387Z,20.23
2018-07-06T20:39:27.870Z,20.16
2018-07-06T20:41:56.347Z,20.10
2018-07-06T20:44:24.861Z,20.06
2018-07-06T20:46:53.430Z,19.94
2018-07-06T20:49:22.044Z,19.95
2018-07-06T20:51:50.787Z,19.93
2018-07-06T20:54:19.351Z,19.87
2018-07-06T20:56:47.838Z,19.89
2018-07-06T20:59:16.477Z,20.20
2018-07-06T21:01:45.027Z,20.23
2018-07-06T21:04:13.676Z,20.25
2018-07-06T21:06:42.150Z,20.22
2018-07-06T21:09:10.679Z,20.25
2018-07-06T21:11:39.561Z,20.20
2018-07-06T21:14:08.042Z,20.12
2018-07-06T21:16:36.503Z,20.08
2018-07-06T21:19:05.027Z,20.00
2018-07-06T21:21:33.630Z,20.03
2018-07-06T21:24:02.298Z,20.01
2018-07-06T21:26:30.996Z,19.99
2018-07-06T21:28:59.521Z,20.06
2018-07-06T21:31:28.051Z,20.20
2018-07-06T21:33:56.592Z,20.41
2018-07-06T21:36:25.206Z,20.53
2018-07-06T21:38:53.767Z,20.51
2018-07-06T21:41:22.334Z,20.53
2018-07-06T21:43:51.079Z,20.50
2018-07-06T21:46:19.943Z,20.41
2018-07-06T21:48:48.398Z,20.37
2018-07-06T21:51:16.894Z,20.34
2018-07-06T21:53:45.387Z,20.34
2018-07-06T21:56:13.907Z,20.39
2018-07-06T21:58:42.408Z,20.41
2018-07-06T22:01:10.941Z,20.45
2018-07-06T22:03:39.545Z,20.44
2018-07-06T22:06:08.102Z,20.51
2018-07-06T22:08:36.758Z,20.58
2018-07-06T22:11:05.416Z,20.57
2018-07-06T22:13:33.992Z,20.53
2018-07-06T22:16:02.555Z,20.52
2018-07-06T22:18:31.087Z,20.43
2018-07-06T22:20:59.804Z,20.40
2018-07-06T22:23:28.751Z,20.43
2018-07-06T22:25:57.266Z,20.42
2018-07-06T22:28:25.759Z,20.37
2018-07-06T22:30:54.239Z,20.32
2018-07-06T22:33:22.803Z,20.35
2018-07-06T22:35:51.215Z,20.23
2018-07-06T22:38:19.837Z,20.21
2018-07-06T22:40:48.490Z,20.14
2018-07-06T22:43:16.979Z,19.98
2018-07-06T22:45:45.456Z,19.90
2018-07-06T22:48:13.879Z,19.80
2018-07-06T22:50:42.391Z,19.70
2018-07-06T22:53:10.931Z,19.70
2018-07-06T22:55:39.489Z,19.63
2018-07-06T22:58:08.123Z,19.60
2018-07-06T23:00:36.740Z,19.56
2018-07-06T23:03:06.199Z,19.59
2018-07-06T23:05:34.885Z,19.55
2018-07-06T23:08:03.352Z,19.52
2018-07-06T23:10:31.967Z,19.53
2018-07-06T23:13:00.531Z,19.54
2018-07-06T23:15:29.096Z,19.53
2018-07-06T23:17:57.663Z,19.55
2018-07-06T23:20:26.107Z,19.46
2018-07-06T23:23:00.998Z,19.40
2018-07-06T23:25:29.814Z,19.35
2018-07-06T23:27:58.399Z,19.31
2018-07-06T23:30:27.251Z,19.30
2018-07-06T23:32:56.764Z,19.30
2018-07-06T23:35:25.433Z,19.29
2018-07-06T23:37:54.140Z,19.29
2018-07-06T23:40:22.802Z,19.24
2018-07-06T23:42:51.299Z,19.18
2018-07-06T23:45:20.240Z,19.19
2018-07-06T23:47:48.788Z,19.13
2018-07-06T23:50:17.762Z,19.10
2018-07-06T23:52:46.847Z,19.12
2018-07-06T23:55:15.840Z,19.11
2018-07-06T23:57:44.734Z,19.15
